Almadina, Brazil
Current Conditions -  °F | °C
As of 7:00 PM on Friday 19 Dec 2014 (Local Time) from SBIL Reporting Station
Light Rain Light Rain  
Wind Chill: 77°   Ceiling: 2000
Heat Index: 78°   Visibility: 3mi
Dew Point: 73°   Wind: 9mph
Humidity: 89%   Direction: 60°ENE
Pressure: 29.88"   Gusts: NA
Location:  14.71°S, 39.64°W
Report Text: SBIL 192200Z 06008KT 5000 -RA SCT010 BKN020 BKN070 25/23 Q1012
Loading
Personal Weather Stations






























Interactive Weather Map New forecast layout! Learn more

10-Day Weather Forecast

Advertisements
Track Severe Weather on mobile